sensor_id;sensor_type;location;lat;lon;timestamp;P1;durP1;ratioP1;P2;durP2;ratioP2
69917;SDS011;57203;42.672;23.334;2023-02-28T00:01:03;27.7;;;14.4;;
69917;SDS011;57203;42.672;23.334;2023-02-28T00:02:02;25.3;;;15.5;;
69917;SDS011;57203;42.672;23.334;2023-02-28T00:03:02;31.0;;;15.3;;
69917;SDS011;57203;42.672;23.334;2023-02-28T00:04:03;28.3;;;15.0;;
69917;SDS011;57203;42.672;23.334;2023-02-28T00:05:03;28.3;;;15.2;;
69917;SDS011;57203;42.672;23.334;2023-02-28T00:06:03;29.7;;;16.1;;
69917;SDS011;57203;42.672;23.334;2023-02-28T00:08:04;29.4;;;16.3;;
69917;SDS011;57203;42.672;23.334;2023-02-28T00:09:03;29.4;;;15.4;;
69917;SDS011;57203;42.672;23.334;2023-02-28T00:10:04;31.0;;;15.0;;
69917;SDS011;57203;42.672;23.334;2023-02-28T00:11:04;31.0;;;16.0;;
69917;SDS011;57203;42.672;23.334;2023-02-28T00:12:04;31.0;;;16.6;;
69917;SDS011;57203;42.672;23.334;2023-02-28T00:13:05;30.3;;;16.7;;
69917;SDS011;57203;42.672;23.334;2023-02-28T00:14:04;31.2;;;16.4;;
69917;SDS011;57203;42.672;23.334;2023-02-28T00:15:05;30.1;;;16.7;;
69917;SDS011;57203;42.672;23.334;2023-02-28T00:16:05;30.1;;;16.8;;
69917;SDS011;57203;42.672;23.334;2023-02-28T00:17:05;30.6;;;15.9;;
69917;SDS011;57203;42.672;23.334;2023-02-28T00:18:05;30.6;;;17.0;;
69917;SDS011;57203;42.672;23.334;2023-02-28T00:20:06;32.8;;;16.6;;
69917;SDS011;57203;42.672;23.334;2023-02-28T00:21:05;31.8;;;15.6;;
69917;SDS011;57203;42.672;23.334;2023-02-28T00:22:05;31.8;;;15.8;;
69917;SDS011;57203;42.672;23.334;2023-02-28T00:23:06;30.1;;;15.5;;
69917;SDS011;57203;42.672;23.334;2023-02-28T00:24:06;30.8;;;16.3;;
69917;SDS011;57203;42.672;23.334;2023-02-28T00:25:06;29.3;;;15.8;;
69917;SDS011;57203;42.672;23.334;2023-02-28T00:26:06;29.4;;;16.7;;
69917;SDS011;57203;42.672;23.334;2023-02-28T00:27:06;29.4;;;16.4;;
69917;SDS011;57203;42.672;23.334;2023-02-28T00:28:06;31.6;;;15.0;;
69917;SDS011;57203;42.672;23.334;2023-02-28T00:29:07;27.9;;;16.1;;
69917;SDS011;57203;42.672;23.334;2023-02-28T00:30:08;29.6;;;17.7;;
69917;SDS011;57203;42.672;23.334;2023-02-28T00:31:07;33.0;;;16.9;;
69917;SDS011;57203;42.672;23.334;2023-02-28T00:32:07;32.0;;;16.5;;
69917;SDS011;57203;42.672;23.334;2023-02-28T00:33:07;34.2;;;16.8;;
69917;SDS011;57203;42.672;23.334;2023-02-28T00:34:07;32.2;;;16.3;;
69917;SDS011;57203;42.672;23.334;2023-02-28T00:35:08;34.0;;;18.0;;
69917;SDS011;57203;42.672;23.334;2023-02-28T00:36:09;35.0;;;18.4;;
69917;SDS011;57203;42.672;23.334;2023-02-28T00:37:09;35.0;;;18.1;;
69917;SDS011;57203;42.672;23.334;2023-02-28T00:38:08;34.3;;;16.8;;
69917;SDS011;57203;42.672;23.334;2023-02-28T00:39:08;33.3;;;17.7;;
69917;SDS011;57203;42.672;23.334;2023-02-28T00:40:09;33.9;;;18.1;;
69917;SDS011;57203;42.672;23.334;2023-02-28T00:41:09;34.0;;;17.6;;
69917;SDS011;57203;42.672;23.334;2023-02-28T00:43:09;34.6;;;17.1;;
69917;SDS011;57203;42.672;23.334;2023-02-28T00:44:09;34.8;;;17.8;;
69917;SDS011;57203;42.672;23.334;2023-02-28T00:45:09;35.4;;;17.3;;
69917;SDS011;57203;42.672;23.334;2023-02-28T00:46:09;35.1;;;18.2;;
69917;SDS011;57203;42.672;23.334;2023-02-28T00:47:09;35.5;;;18.7;;
69917;SDS011;57203;42.672;23.334;2023-02-28T00:48:10;33.6;;;17.0;;
69917;SDS011;57203;42.672;23.334;2023-02-28T00:49:10;33.6;;;18.5;;
69917;SDS011;57203;42.672;23.334;2023-02-28T00:50:10;33.9;;;18.6;;
69917;SDS011;57203;42.672;23.334;2023-02-28T00:51:10;35.3;;;17.8;;
69917;SDS011;57203;42.672;23.334;2023-02-28T00:52:10;36.7;;;17.6;;
69917;SDS011;57203;42.672;23.334;2023-02-28T00:53:11;36.7;;;17.3;;
69917;SDS011;57203;42.672;23.334;2023-02-28T00:54:11;35.7;;;17.6;;
69917;SDS011;57203;42.672;23.334;2023-02-28T00:55:11;35.9;;;18.1;;
69917;SDS011;57203;42.672;23.334;2023-02-28T00:56:11;33.6;;;19.0;;
69917;SDS011;57203;42.672;23.334;2023-02-28T00:57:11;38.5;;;18.1;;
69917;SDS011;57203;42.672;23.334;2023-02-28T00:58:11;38.5;;;19.7;;
69917;SDS011;57203;42.672;23.334;2023-02-28T00:59:12;40.4;;;20.2;;
69917;SDS011;57203;42.672;23.334;2023-02-28T01:00:12;41.9;;;20.5;;
69917;SDS011;57203;42.672;23.334;2023-02-28T01:01:12;45.1;;;23.3;;
69917;SDS011;57203;42.672;23.334;2023-02-28T01:02:12;45.1;;;34.7;;
69917;SDS011;57203;42.672;23.334;2023-02-28T01:03:12;66.1;;;21.9;;
69917;SDS011;57203;42.672;23.334;2023-02-28T01:04:13;43.4;;;21.4;;
69917;SDS011;57203;42.672;23.334;2023-02-28T01:05:13;43.4;;;22.2;;
69917;SDS011;57203;42.672;23.334;2023-02-28T01:06:13;45.2;;;21.8;;
69917;SDS011;57203;42.672;23.334;2023-02-28T01:07:13;46.2;;;20.5;;
69917;SDS011;57203;42.672;23.334;2023-02-28T01:08:13;40.4;;;21.1;;
69917;SDS011;57203;42.672;23.334;2023-02-28T01:09:13;41.8;;;20.4;;
69917;SDS011;57203;42.672;23.334;2023-02-28T01:10:13;41.8;;;20.9;;
69917;SDS011;57203;42.672;23.334;2023-02-28T01:11:15;40.8;;;21.8;;
69917;SDS011;57203;42.672;23.334;2023-02-28T01:12:14;39.9;;;20.2;;
69917;SDS011;57203;42.672;23.334;2023-02-28T01:13:14;39.9;;;21.6;;
69917;SDS011;57203;42.672;23.334;2023-02-28T01:14:15;42.8;;;21.5;;
69917;SDS011;57203;42.672;23.334;2023-02-28T01:15:14;45.4;;;22.0;;
69917;SDS011;57203;42.672;23.334;2023-02-28T01:16:14;43.4;;;21.4;;
69917;SDS011;57203;42.672;23.334;2023-02-28T01:17:15;42.1;;;21.3;;
69917;SDS011;57203;42.672;23.334;2023-02-28T01:18:15;42.1;;;22.1;;
69917;SDS011;57203;42.672;23.334;2023-02-28T01:19:15;43.2;;;21.5;;
69917;SDS011;57203;42.672;23.334;2023-02-28T01:20:15;43.4;;;20.3;;
69917;SDS011;57203;42.672;23.334;2023-02-28T01:21:16;41.9;;;21.0;;
69917;SDS011;57203;42.672;23.334;2023-02-28T01:22:15;40.4;;;20.9;;
69917;SDS011;57203;42.672;23.334;2023-02-28T01:23:15;41.2;;;19.5;;
69917;SDS011;57203;42.672;23.334;2023-02-28T01:24:16;40.6;;;20.6;;
69917;SDS011;57203;42.672;23.334;2023-02-28T01:25:16;39.5;;;19.7;;
69917;SDS011;57203;42.672;23.334;2023-02-28T01:26:17;41.4;;;20.3;;
69917;SDS011;57203;42.672;23.334;2023-02-28T01:27:16;44.5;;;21.9;;
69917;SDS011;57203;42.672;23.334;2023-02-28T01:28:16;44.5;;;20.7;;
69917;SDS011;57203;42.672;23.334;2023-02-28T01:29:17;43.8;;;22.2;;
69917;SDS011;57203;42.672;23.334;2023-02-28T01:30:17;48.4;;;22.3;;
69917;SDS011;57203;42.672;23.334;2023-02-28T01:31:17;48.4;;;22.7;;
69917;SDS011;57203;42.672;23.334;2023-02-28T01:32:17;44.5;;;24.4;;
69917;SDS011;57203;42.672;23.334;2023-02-28T01:33:17;53.0;;;23.0;;
69917;SDS011;57203;42.672;23.334;2023-02-28T01:34:17;47.5;;;23.8;;
69917;SDS011;57203;42.672;23.334;2023-02-28T01:35:18;53.8;;;24.8;;
69917;SDS011;57203;42.672;23.334;2023-02-28T01:36:18;53.2;;;24.3;;
69917;SDS011;57203;42.672;23.334;2023-02-28T01:37:18;54.8;;;24.1;;
69917;SDS011;57203;42.672;23.334;2023-02-28T01:39:18;49.3;;;23.7;;
69917;SDS011;57203;42.672;23.334;2023-02-28T01:40:18;49.3;;;24.2;;
69917;SDS011;57203;42.672;23.334;2023-02-28T01:41:19;53.5;;;23.0;;
69917;SDS011;57203;42.672;23.334;2023-02-28T01:42:19;52.6;;;23.8;;
69917;SDS011;57203;42.672;23.334;2023-02-28T01:43:20;48.0;;;22.5;;
69917;SDS011;57203;42.672;23.334;2023-02-28T01:45:21;52.1;;;24.3;;
69917;SDS011;57203;42.672;23.334;2023-02-28T01:46:19;49.5;;;23.4;;
69917;SDS011;57203;42.672;23.334;2023-02-28T01:47:19;49.5;;;22.7;;
69917;SDS011;57203;42.672;23.334;2023-02-28T01:48:21;48.3;;;22.6;;
69917;SDS011;57203;42.672;23.334;2023-02-28T01:49:20;48.3;;;23.2;;
69917;SDS011;57203;42.672;23.334;2023-02-28T01:50:21;48.5;;;21.9;;
69917;SDS011;57203;42.672;23.334;2023-02-28T01:51:21;53.0;;;23.2;;
69917;SDS011;57203;42.672;23.334;2023-02-28T01:52:20;53.0;;;22.6;;
69917;SDS011;57203;42.672;23.334;2023-02-28T01:53:23;48.8;;;24.7;;
69917;SDS011;57203;42.672;23.334;2023-02-28T01:54:22;57.1;;;23.1;;
69917;SDS011;57203;42.672;23.334;2023-02-28T01:55:21;53.3;;;23.7;;
69917;SDS011;57203;42.672;23.334;2023-02-28T01:56:22;53.3;;;24.1;;
69917;SDS011;57203;42.672;23.334;2023-02-28T01:57:22;49.4;;;23.1;;
69917;SDS011;57203;42.672;23.334;2023-02-28T01:58:21;52.1;;;23.6;;
69917;SDS011;57203;42.672;23.334;2023-02-28T01:59:22;52.5;;;25.1;;
69917;SDS011;57203;42.672;23.334;2023-02-28T02:00:22;52.5;;;23.6;;
69917;SDS011;57203;42.672;23.334;2023-02-28T02:01:22;50.5;;;24.5;;
69917;SDS011;57203;42.672;23.334;2023-02-28T02:02:22;53.7;;;24.0;;
69917;SDS011;57203;42.672;23.334;2023-02-28T02:03:22;51.0;;;26.9;;
69917;SDS011;57203;42.672;23.334;2023-02-28T02:04:22;55.3;;;24.8;;
69917;SDS011;57203;42.672;23.334;2023-02-28T02:05:23;55.3;;;25.1;;
69917;SDS011;57203;42.672;23.334;2023-02-28T02:06:23;54.0;;;26.5;;
69917;SDS011;57203;42.672;23.334;2023-02-28T02:07:23;55.3;;;24.9;;
69917;SDS011;57203;42.672;23.334;2023-02-28T02:08:23;55.3;;;26.6;;
69917;SDS011;57203;42.672;23.334;2023-02-28T02:09:23;55.5;;;26.0;;
69917;SDS011;57203;42.672;23.334;2023-02-28T02:10:25;58.9;;;26.5;;
69917;SDS011;57203;42.672;23.334;2023-02-28T02:11:23;58.9;;;25.8;;
69917;SDS011;57203;42.672;23.334;2023-02-28T02:12:25;56.4;;;26.1;;
69917;SDS011;57203;42.672;23.334;2023-02-28T02:13:28;58.1;;;25.2;;
69917;SDS011;57203;42.672;23.334;2023-02-28T02:14:28;53.2;;;26.7;;
69917;SDS011;57203;42.672;23.334;2023-02-28T02:15:25;59.9;;;25.7;;
69917;SDS011;57203;42.672;23.334;2023-02-28T02:16:29;59.9;;;27.9;;
69917;SDS011;57203;42.672;23.334;2023-02-28T02:17:26;57.4;;;26.3;;
69917;SDS011;57203;42.672;23.334;2023-02-28T02:18:26;57.4;;;27.0;;
69917;SDS011;57203;42.672;23.334;2023-02-28T02:19:32;54.3;;;26.4;;
69917;SDS011;57203;42.672;23.334;2023-02-28T02:22:30;54.7;;;26.7;;
69917;SDS011;57203;42.672;23.334;2023-02-28T02:23:37;53.2;;;25.4;;
69917;SDS011;57203;42.672;23.334;2023-02-28T02:25:26;57.7;;;26.4;;
69917;SDS011;57203;42.672;23.334;2023-02-28T02:26:33;57.7;;;25.9;;
69917;SDS011;57203;42.672;23.334;2023-02-28T02:27:32;56.8;;;26.1;;
69917;SDS011;57203;42.672;23.334;2023-02-28T02:29:37;59.0;;;26.0;;
69917;SDS011;57203;42.672;23.334;2023-02-28T02:30:32;59.8;;;26.9;;
69917;SDS011;57203;42.672;23.334;2023-02-28T02:31:29;60.2;;;26.3;;
69917;SDS011;57203;42.672;23.334;2023-02-28T02:33:29;64.4;;;27.8;;
69917;SDS011;57203;42.672;23.334;2023-02-28T02:34:29;60.1;;;26.8;;
69917;SDS011;57203;42.672;23.334;2023-02-28T02:35:27;59.9;;;26.4;;
69917;SDS011;57203;42.672;23.334;2023-02-28T02:36:28;60.7;;;25.9;;
69917;SDS011;57203;42.672;23.334;2023-02-28T02:37:29;56.1;;;26.3;;
69917;SDS011;57203;42.672;23.334;2023-02-28T02:38:31;54.0;;;26.6;;
69917;SDS011;57203;42.672;23.334;2023-02-28T02:39:29;58.5;;;26.4;;
69917;SDS011;57203;42.672;23.334;2023-02-28T02:40:29;61.5;;;26.7;;
69917;SDS011;57203;42.672;23.334;2023-02-28T02:41:31;58.8;;;26.6;;
69917;SDS011;57203;42.672;23.334;2023-02-28T02:42:29;58.1;;;26.3;;
69917;SDS011;57203;42.672;23.334;2023-02-28T02:43:29;58.1;;;27.5;;
69917;SDS011;57203;42.672;23.334;2023-02-28T02:44:30;60.6;;;28.2;;
69917;SDS011;57203;42.672;23.334;2023-02-28T02:45:31;68.5;;;28.4;;
69917;SDS011;57203;42.672;23.334;2023-02-28T02:46:29;68.5;;;29.0;;
69917;SDS011;57203;42.672;23.334;2023-02-28T02:47:30;62.6;;;27.8;;
69917;SDS011;57203;42.672;23.334;2023-02-28T02:48:30;62.6;;;28.1;;
69917;SDS011;57203;42.672;23.334;2023-02-28T02:49:30;66.6;;;28.4;;
69917;SDS011;57203;42.672;23.334;2023-02-28T02:50:31;66.5;;;28.7;;
69917;SDS011;57203;42.672;23.334;2023-02-28T02:51:30;76.6;;;30.2;;
69917;SDS011;57203;42.672;23.334;2023-02-28T02:52:32;76.6;;;29.3;;
69917;SDS011;57203;42.672;23.334;2023-02-28T02:53:32;68.8;;;29.1;;
69917;SDS011;57203;42.672;23.334;2023-02-28T02:54:31;70.9;;;28.7;;
69917;SDS011;57203;42.672;23.334;2023-02-28T02:55:31;69.5;;;29.5;;
69917;SDS011;57203;42.672;23.334;2023-02-28T02:56:31;72.4;;;30.0;;
69917;SDS011;57203;42.672;23.334;2023-02-28T02:57:32;83.0;;;30.1;;
69917;SDS011;57203;42.672;23.334;2023-02-28T02:58:32;87.8;;;29.8;;
69917;SDS011;57203;42.672;23.334;2023-02-28T02:59:31;81.8;;;30.3;;
69917;SDS011;57203;42.672;23.334;2023-02-28T03:00:32;77.4;;;29.6;;
69917;SDS011;57203;42.672;23.334;2023-02-28T03:01:32;82.2;;;30.1;;
69917;SDS011;57203;42.672;23.334;2023-02-28T03:02:32;80.0;;;29.1;;
69917;SDS011;57203;42.672;23.334;2023-02-28T03:03:32;76.4;;;29.7;;
69917;SDS011;57203;42.672;23.334;2023-02-28T03:04:33;76.4;;;31.4;;
69917;SDS011;57203;42.672;23.334;2023-02-28T03:05:33;109.7;;;32.6;;
69917;SDS011;57203;42.672;23.334;2023-02-28T03:06:32;93.8;;;31.4;;
69917;SDS011;57203;42.672;23.334;2023-02-28T03:07:32;78.3;;;31.1;;
69917;SDS011;57203;42.672;23.334;2023-02-28T03:08:33;78.3;;;32.0;;
69917;SDS011;57203;42.672;23.334;2023-02-28T03:09:33;83.2;;;31.1;;
69917;SDS011;57203;42.672;23.334;2023-02-28T03:10:34;85.1;;;30.3;;
69917;SDS011;57203;42.672;23.334;2023-02-28T03:11:34;80.3;;;29.6;;
69917;SDS011;57203;42.672;23.334;2023-02-28T03:12:38;75.7;;;29.3;;
69917;SDS011;57203;42.672;23.334;2023-02-28T03:14:37;83.8;;;30.9;;
69917;SDS011;57203;42.672;23.334;2023-02-28T03:15:35;83.8;;;29.9;;
69917;SDS011;57203;42.672;23.334;2023-02-28T03:16:35;79.2;;;31.6;;
69917;SDS011;57203;42.672;23.334;2023-02-28T03:17:38;82.6;;;30.4;;
69917;SDS011;57203;42.672;23.334;2023-02-28T03:18:36;79.8;;;29.9;;
69917;SDS011;57203;42.672;23.334;2023-02-28T03:19:38;83.3;;;32.2;;
69917;SDS011;57203;42.672;23.334;2023-02-28T03:20:36;81.5;;;30.9;;
69917;SDS011;57203;42.672;23.334;2023-02-28T03:21:36;78.0;;;30.6;;
69917;SDS011;57203;42.672;23.334;2023-02-28T03:22:39;81.8;;;30.8;;
69917;SDS011;57203;42.672;23.334;2023-02-28T03:23:37;81.8;;;29.8;;
69917;SDS011;57203;42.672;23.334;2023-02-28T03:24:37;87.1;;;31.0;;
69917;SDS011;57203;42.672;23.334;2023-02-28T03:25:37;83.9;;;30.4;;
69917;SDS011;57203;42.672;23.334;2023-02-28T03:26:37;81.3;;;30.0;;
69917;SDS011;57203;42.672;23.334;2023-02-28T03:27:36;81.3;;;28.7;;
69917;SDS011;57203;42.672;23.334;2023-02-28T03:28:37;80.6;;;28.6;;
69917;SDS011;57203;42.672;23.334;2023-02-28T03:29:37;77.8;;;28.1;;
69917;SDS011;57203;42.672;23.334;2023-02-28T03:30:39;77.8;;;27.5;;
69917;SDS011;57203;42.672;23.334;2023-02-28T03:31:37;74.5;;;27.4;;
69917;SDS011;57203;42.672;23.334;2023-02-28T03:32:38;72.8;;;28.1;;
69917;SDS011;57203;42.672;23.334;2023-02-28T03:33:38;76.3;;;29.1;;
69917;SDS011;57203;42.672;23.334;2023-02-28T03:34:38;76.5;;;28.9;;
69917;SDS011;57203;42.672;23.334;2023-02-28T03:35:39;76.5;;;29.7;;
69917;SDS011;57203;42.672;23.334;2023-02-28T03:36:38;82.7;;;27.9;;
69917;SDS011;57203;42.672;23.334;2023-02-28T03:37:38;77.1;;;28.5;;
69917;SDS011;57203;42.672;23.334;2023-02-28T03:38:38;81.8;;;26.7;;
69917;SDS011;57203;42.672;23.334;2023-02-28T03:39:39;70.0;;;27.4;;
69917;SDS011;57203;42.672;23.334;2023-02-28T03:40:38;72.0;;;27.6;;
69917;SDS011;57203;42.672;23.334;2023-02-28T03:41:40;72.0;;;27.9;;
69917;SDS011;57203;42.672;23.334;2023-02-28T03:42:39;69.6;;;25.5;;
69917;SDS011;57203;42.672;23.334;2023-02-28T03:43:40;60.7;;;26.2;;
69917;SDS011;57203;42.672;23.334;2023-02-28T03:44:39;72.0;;;25.8;;
69917;SDS011;57203;42.672;23.334;2023-02-28T03:45:39;69.6;;;27.5;;
69917;SDS011;57203;42.672;23.334;2023-02-28T03:46:39;74.3;;;27.7;;
69917;SDS011;57203;42.672;23.334;2023-02-28T03:47:40;69.7;;;28.0;;
69917;SDS011;57203;42.672;23.334;2023-02-28T03:48:40;76.8;;;28.3;;
69917;SDS011;57203;42.672;23.334;2023-02-28T03:49:40;73.2;;;27.8;;
69917;SDS011;57203;42.672;23.334;2023-02-28T03:50:40;71.5;;;26.9;;
69917;SDS011;57203;42.672;23.334;2023-02-28T03:51:40;71.5;;;27.7;;
69917;SDS011;57203;42.672;23.334;2023-02-28T03:52:42;74.2;;;26.8;;
69917;SDS011;57203;42.672;23.334;2023-02-28T03:53:41;73.8;;;28.4;;
69917;SDS011;57203;42.672;23.334;2023-02-28T03:54:41;73.8;;;28.8;;
69917;SDS011;57203;42.672;23.334;2023-02-28T03:55:42;77.7;;;28.2;;
69917;SDS011;57203;42.672;23.334;2023-02-28T03:56:42;74.5;;;28.0;;
69917;SDS011;57203;42.672;23.334;2023-02-28T03:57:43;74.5;;;28.3;;
69917;SDS011;57203;42.672;23.334;2023-02-28T03:58:41;78.9;;;28.1;;
69917;SDS011;57203;42.672;23.334;2023-02-28T03:59:42;78.9;;;29.1;;
69917;SDS011;57203;42.672;23.334;2023-02-28T04:00:43;90.0;;;29.0;;
69917;SDS011;57203;42.672;23.334;2023-02-28T04:01:42;79.5;;;28.1;;
69917;SDS011;57203;42.672;23.334;2023-02-28T04:02:42;84.8;;;29.2;;
69917;SDS011;57203;42.672;23.334;2023-02-28T04:03:42;77.3;;;29.6;;
69917;SDS011;57203;42.672;23.334;2023-02-28T04:04:42;78.9;;;29.4;;
69917;SDS011;57203;42.672;23.334;2023-02-28T04:05:45;78.9;;;29.3;;
69917;SDS011;57203;42.672;23.334;2023-02-28T04:06:42;78.6;;;30.5;;
69917;SDS011;57203;42.672;23.334;2023-02-28T04:07:42;87.3;;;31.1;;
69917;SDS011;57203;42.672;23.334;2023-02-28T04:09:43;82.4;;;31.5;;
69917;SDS011;57203;42.672;23.334;2023-02-28T04:11:44;90.2;;;32.5;;
69917;SDS011;57203;42.672;23.334;2023-02-28T04:12:43;89.4;;;32.1;;
69917;SDS011;57203;42.672;23.334;2023-02-28T04:13:43;89.4;;;32.4;;
69917;SDS011;57203;42.672;23.334;2023-02-28T04:14:43;94.8;;;31.8;;
69917;SDS011;57203;42.672;23.334;2023-02-28T04:15:44;91.3;;;31.0;;
69917;SDS011;57203;42.672;23.334;2023-02-28T04:16:44;88.1;;;31.6;;
69917;SDS011;57203;42.672;23.334;2023-02-28T04:17:44;87.1;;;32.6;;
69917;SDS011;57203;42.672;23.334;2023-02-28T04:18:44;87.1;;;31.2;;
69917;SDS011;57203;42.672;23.334;2023-02-28T04:19:44;88.5;;;29.3;;
69917;SDS011;57203;42.672;23.334;2023-02-28T04:20:44;94.3;;;32.5;;
69917;SDS011;57203;42.672;23.334;2023-02-28T04:21:46;94.3;;;31.7;;
69917;SDS011;57203;42.672;23.334;2023-02-28T04:22:45;103.9;;;31.1;;
69917;SDS011;57203;42.672;23.334;2023-02-28T04:23:45;87.3;;;31.7;;
69917;SDS011;57203;42.672;23.334;2023-02-28T04:24:45;87.2;;;31.5;;
69917;SDS011;57203;42.672;23.334;2023-02-28T04:25:45;87.2;;;31.3;;
69917;SDS011;57203;42.672;23.334;2023-02-28T04:26:46;93.1;;;29.1;;
69917;SDS011;57203;42.672;23.334;2023-02-28T04:27:45;85.3;;;30.2;;
69917;SDS011;57203;42.672;23.334;2023-02-28T04:28:46;85.3;;;29.0;;
69917;SDS011;57203;42.672;23.334;2023-02-28T04:29:46;76.7;;;38.4;;
69917;SDS011;57203;42.672;23.334;2023-02-28T04:30:46;104.7;;;29.5;;
69917;SDS011;57203;42.672;23.334;2023-02-28T04:31:46;85.6;;;27.9;;
69917;SDS011;57203;42.672;23.334;2023-02-28T04:32:46;76.6;;;27.2;;
69917;SDS011;57203;42.672;23.334;2023-02-28T04:33:47;81.4;;;27.7;;
69917;SDS011;57203;42.672;23.334;2023-02-28T04:34:47;81.4;;;28.4;;
69917;SDS011;57203;42.672;23.334;2023-02-28T04:35:47;69.3;;;26.4;;
69917;SDS011;57203;42.672;23.334;2023-02-28T04:36:47;69.3;;;28.2;;
69917;SDS011;57203;42.672;23.334;2023-02-28T04:37:47;76.9;;;26.4;;
69917;SDS011;57203;42.672;23.334;2023-02-28T04:38:47;70.5;;;27.3;;
69917;SDS011;57203;42.672;23.334;2023-02-28T04:39:48;76.0;;;29.0;;
69917;SDS011;57203;42.672;23.334;2023-02-28T04:40:48;79.0;;;27.8;;
69917;SDS011;57203;42.672;23.334;2023-02-28T04:41:48;79.0;;;27.3;;
69917;SDS011;57203;42.672;23.334;2023-02-28T04:42:48;82.4;;;27.5;;
69917;SDS011;57203;42.672;23.334;2023-02-28T04:43:48;76.7;;;27.8;;
69917;SDS011;57203;42.672;23.334;2023-02-28T04:44:48;69.9;;;27.1;;
69917;SDS011;57203;42.672;23.334;2023-02-28T04:45:49;69.9;;;27.0;;
69917;SDS011;57203;42.672;23.334;2023-02-28T04:46:49;70.3;;;26.8;;
69917;SDS011;57203;42.672;23.334;2023-02-28T04:47:49;77.5;;;28.4;;
69917;SDS011;57203;42.672;23.334;2023-02-28T04:48:49;77.5;;;25.6;;
69917;SDS011;57203;42.672;23.334;2023-02-28T04:49:49;75.0;;;27.8;;
69917;SDS011;57203;42.672;23.334;2023-02-28T04:50:49;75.0;;;27.5;;
69917;SDS011;57203;42.672;23.334;2023-02-28T04:51:49;72.1;;;27.3;;
69917;SDS011;57203;42.672;23.334;2023-02-28T04:52:50;71.4;;;26.0;;
69917;SDS011;57203;42.672;23.334;2023-02-28T04:53:50;74.7;;;28.6;;
69917;SDS011;57203;42.672;23.334;2023-02-28T04:54:50;74.7;;;27.5;;
69917;SDS011;57203;42.672;23.334;2023-02-28T04:55:50;81.1;;;29.5;;
69917;SDS011;57203;42.672;23.334;2023-02-28T04:56:50;82.5;;;28.4;;
69917;SDS011;57203;42.672;23.334;2023-02-28T04:57:52;82.5;;;29.8;;
69917;SDS011;57203;42.672;23.334;2023-02-28T04:58:51;83.5;;;28.1;;
69917;SDS011;57203;42.672;23.334;2023-02-28T04:59:51;80.7;;;28.2;;
69917;SDS011;57203;42.672;23.334;2023-02-28T05:00:51;76.3;;;27.8;;
69917;SDS011;57203;42.672;23.334;2023-02-28T05:01:51;78.1;;;30.1;;
69917;SDS011;57203;42.672;23.334;2023-02-28T05:02:51;90.6;;;30.4;;
69917;SDS011;57203;42.672;23.334;2023-02-28T05:03:52;85.6;;;30.3;;
69917;SDS011;57203;42.672;23.334;2023-02-28T05:04:52;92.1;;;29.8;;
69917;SDS011;57203;42.672;23.334;2023-02-28T05:05:52;83.5;;;30.5;;
69917;SDS011;57203;42.672;23.334;2023-02-28T05:06:52;88.8;;;31.4;;
69917;SDS011;57203;42.672;23.334;2023-02-28T05:07:52;119.8;;;30.9;;
69917;SDS011;57203;42.672;23.334;2023-02-28T05:08:52;84.9;;;32.4;;
69917;SDS011;57203;42.672;23.334;2023-02-28T05:09:52;91.0;;;30.4;;
69917;SDS011;57203;42.672;23.334;2023-02-28T05:10:52;87.2;;;30.7;;
69917;SDS011;57203;42.672;23.334;2023-02-28T05:11:53;83.7;;;30.1;;
69917;SDS011;57203;42.672;23.334;2023-02-28T05:12:53;78.8;;;30.3;;
69917;SDS011;57203;42.672;23.334;2023-02-28T05:13:53;79.4;;;31.2;;
69917;SDS011;57203;42.672;23.334;2023-02-28T05:14:53;86.3;;;30.7;;
69917;SDS011;57203;42.672;23.334;2023-02-28T05:15:53;86.3;;;28.3;;
69917;SDS011;57203;42.672;23.334;2023-02-28T05:16:54;76.2;;;30.4;;
69917;SDS011;57203;42.672;23.334;2023-02-28T05:17:54;81.6;;;28.6;;
69917;SDS011;57203;42.672;23.334;2023-02-28T05:18:54;73.1;;;28.2;;
69917;SDS011;57203;42.672;23.334;2023-02-28T05:19:54;70.9;;;29.7;;
69917;SDS011;57203;42.672;23.334;2023-02-28T05:20:54;76.7;;;30.1;;
69917;SDS011;57203;42.672;23.334;2023-02-28T05:21:54;80.6;;;30.4;;
69917;SDS011;57203;42.672;23.334;2023-02-28T05:22:55;80.6;;;30.1;;
69917;SDS011;57203;42.672;23.334;2023-02-28T05:23:55;76.1;;;30.2;;
69917;SDS011;57203;42.672;23.334;2023-02-28T05:24:55;80.2;;;31.8;;
69917;SDS011;57203;42.672;23.334;2023-02-28T05:25:55;82.6;;;30.2;;
69917;SDS011;57203;42.672;23.334;2023-02-28T05:26:55;82.7;;;31.2;;
69917;SDS011;57203;42.672;23.334;2023-02-28T05:27:55;82.7;;;32.0;;
69917;SDS011;57203;42.672;23.334;2023-02-28T05:28:56;88.2;;;32.7;;
69917;SDS011;57203;42.672;23.334;2023-02-28T05:29:56;86.3;;;32.4;;
69917;SDS011;57203;42.672;23.334;2023-02-28T05:30:56;87.1;;;33.5;;
69917;SDS011;57203;42.672;23.334;2023-02-28T05:31:56;87.1;;;30.9;;
69917;SDS011;57203;42.672;23.334;2023-02-28T05:32:56;81.3;;;31.7;;
69917;SDS011;57203;42.672;23.334;2023-02-28T05:33:56;80.7;;;31.6;;
69917;SDS011;57203;42.672;23.334;2023-02-28T05:34:57;82.9;;;33.5;;
69917;SDS011;57203;42.672;23.334;2023-02-28T05:35:57;99.1;;;33.0;;
69917;SDS011;57203;42.672;23.334;2023-02-28T05:36:57;85.8;;;33.9;;
69917;SDS011;57203;42.672;23.334;2023-02-28T05:37:57;87.8;;;33.1;;
69917;SDS011;57203;42.672;23.334;2023-02-28T05:38:57;94.5;;;34.2;;
69917;SDS011;57203;42.672;23.334;2023-02-28T05:39:57;92.5;;;35.0;;
69917;SDS011;57203;42.672;23.334;2023-02-28T05:40:58;92.5;;;32.9;;
69917;SDS011;57203;42.672;23.334;2023-02-28T05:41:58;91.5;;;30.6;;
69917;SDS011;57203;42.672;23.334;2023-02-28T05:42:58;84.5;;;32.7;;
69917;SDS011;57203;42.672;23.334;2023-02-28T05:43:58;83.4;;;31.1;;
69917;SDS011;57203;42.672;23.334;2023-02-28T05:44:58;82.6;;;31.7;;
69917;SDS011;57203;42.672;23.334;2023-02-28T05:45:58;81.9;;;32.0;;
69917;SDS011;57203;42.672;23.334;2023-02-28T05:46:59;81.9;;;31.6;;
69917;SDS011;57203;42.672;23.334;2023-02-28T05:48:59;78.6;;;31.7;;
69917;SDS011;57203;42.672;23.334;2023-02-28T05:49:59;82.3;;;30.9;;
69917;SDS011;57203;42.672;23.334;2023-02-28T05:50:59;81.7;;;32.3;;
69917;SDS011;57203;42.672;23.334;2023-02-28T05:51:59;81.7;;;31.7;;
69917;SDS011;57203;42.672;23.334;2023-02-28T05:52:59;81.3;;;32.0;;
69917;SDS011;57203;42.672;23.334;2023-02-28T05:54:00;81.3;;;32.3;;
69917;SDS011;57203;42.672;23.334;2023-02-28T05:55:00;79.5;;;31.7;;
69917;SDS011;57203;42.672;23.334;2023-02-28T05:58:00;75.1;;;29.9;;
69917;SDS011;57203;42.672;23.334;2023-02-28T05:59:01;72.4;;;30.7;;
69917;SDS011;57203;42.672;23.334;2023-02-28T06:00:01;74.9;;;29.7;;
69917;SDS011;57203;42.672;23.334;2023-02-28T06:01:18;69.5;;;30.3;;
69917;SDS011;57203;42.672;23.334;2023-02-28T06:02:01;74.8;;;30.7;;
69917;SDS011;57203;42.672;23.334;2023-02-28T06:03:01;78.3;;;30.0;;
69917;SDS011;57203;42.672;23.334;2023-02-28T06:04:02;73.7;;;31.7;;
69917;SDS011;57203;42.672;23.334;2023-02-28T06:05:02;76.6;;;30.6;;
69917;SDS011;57203;42.672;23.334;2023-02-28T06:07:02;77.1;;;30.4;;
69917;SDS011;57203;42.672;23.334;2023-02-28T06:08:02;91.1;;;31.9;;
69917;SDS011;57203;42.672;23.334;2023-02-28T06:09:02;91.1;;;32.2;;
69917;SDS011;57203;42.672;23.334;2023-02-28T06:10:02;79.3;;;32.4;;
69917;SDS011;57203;42.672;23.334;2023-02-28T06:11:03;83.2;;;30.7;;
69917;SDS011;57203;42.672;23.334;2023-02-28T06:12:04;75.3;;;30.5;;
69917;SDS011;57203;42.672;23.334;2023-02-28T06:13:03;75.3;;;31.9;;
69917;SDS011;57203;42.672;23.334;2023-02-28T06:14:03;77.2;;;31.3;;